createdAt,value
2017-08-18T00:02:24.650Z,12.40
2017-08-18T00:04:52.938Z,13.53
2017-08-18T00:07:20.502Z,14.20
2017-08-18T00:09:47.989Z,15.90
2017-08-18T00:12:15.533Z,17.17
2017-08-18T00:14:43.074Z,16.53
2017-08-18T00:17:10.640Z,16.33
2017-08-18T00:19:38.153Z,16.97
2017-08-18T00:22:05.686Z,18.27
2017-08-18T00:24:33.190Z,16.40
2017-08-18T00:27:01.589Z,13.77
2017-08-18T00:29:29.103Z,16.03
2017-08-18T00:31:56.606Z,14.60
2017-08-18T00:34:24.173Z,14.20
2017-08-18T00:36:51.672Z,17.57
2017-08-18T00:39:19.167Z,15.33
2017-08-18T00:41:46.721Z,15.73
2017-08-18T00:44:14.980Z,13.33
2017-08-18T00:46:43.246Z,12.87
2017-08-18T00:49:10.768Z,16.00
2017-08-18T00:51:38.305Z,11.93
2017-08-18T00:54:05.850Z,11.13
2017-08-18T00:56:33.353Z,12.10
2017-08-18T00:59:00.964Z,11.47
2017-08-18T01:01:28.467Z,12.37
2017-08-18T01:03:55.955Z,14.00
2017-08-18T01:06:24.276Z,15.10
2017-08-18T01:08:51.772Z,13.40
2017-08-18T01:11:19.279Z,11.50
2017-08-18T01:13:46.816Z,11.43
2017-08-18T01:16:15.082Z,12.27
2017-08-18T01:18:43.381Z,12.50
2017-08-18T01:21:10.932Z,11.83
2017-08-18T01:23:39.193Z,12.17
2017-08-18T01:26:07.496Z,12.63
2017-08-18T01:28:34.995Z,12.13
2017-08-18T01:31:02.509Z,11.93
2017-08-18T01:33:30.068Z,12.37
2017-08-18T01:35:57.601Z,13.33
2017-08-18T01:38:25.900Z,12.13
2017-08-18T01:40:53.449Z,12.77
2017-08-18T01:43:20.978Z,13.00
2017-08-18T01:45:48.490Z,13.27
2017-08-18T01:48:16.053Z,11.73
2017-08-18T01:50:43.583Z,12.87
2017-08-18T01:53:11.089Z,13.90
2017-08-18T01:55:38.707Z,13.73
2017-08-18T01:58:06.199Z,14.70
2017-08-18T02:00:33.716Z,14.40
2017-08-18T02:03:01.237Z,14.43
2017-08-18T02:05:28.732Z,14.17
2017-08-18T02:07:56.232Z,13.37
2017-08-18T02:10:23.749Z,15.73
2017-08-18T02:12:51.306Z,13.40
2017-08-18T02:15:18.835Z,15.40
2017-08-18T02:17:46.421Z,14.53
2017-08-18T02:20:13.920Z,13.07
2017-08-18T02:22:41.420Z,12.17
2017-08-18T02:25:09.718Z,14.17
2017-08-18T02:27:37.216Z,11.40
2017-08-18T02:30:04.758Z,10.47
2017-08-18T02:32:32.284Z,12.30
2017-08-18T02:34:59.776Z,12.07
2017-08-18T02:37:27.301Z,11.37
2017-08-18T02:39:54.793Z,9.67
2017-08-18T02:42:22.412Z,10.60
2017-08-18T02:44:49.935Z,10.93
2017-08-18T02:47:17.425Z,11.87
2017-08-18T02:49:44.948Z,11.47
2017-08-18T02:52:12.454Z,11.00
2017-08-18T02:54:39.999Z,11.53
2017-08-18T02:57:07.517Z,11.90
2017-08-18T02:59:35.012Z,12.53
2017-08-18T03:02:02.536Z,11.37
2017-08-18T03:04:30.030Z,10.33
2017-08-18T03:06:57.556Z,11.00
2017-08-18T03:09:25.048Z,11.80
2017-08-18T03:11:52.540Z,12.27
2017-08-18T03:14:20.051Z,11.70
2017-08-18T03:16:48.344Z,11.13
2017-08-18T03:19:15.888Z,9.50
2017-08-18T03:21:43.378Z,10.10
2017-08-18T03:24:10.896Z,8.53
2017-08-18T03:26:39.156Z,9.80
2017-08-18T03:29:06.738Z,9.77
2017-08-18T03:31:34.301Z,9.77
2017-08-18T03:34:01.824Z,12.27
2017-08-18T03:36:29.320Z,9.10
2017-08-18T03:38:56.804Z,9.17
2017-08-18T03:41:24.663Z,9.33
2017-08-18T03:43:52.149Z,10.03
2017-08-18T03:46:19.676Z,8.87
2017-08-18T03:48:47.168Z,9.60
2017-08-18T03:51:14.656Z,9.17
2017-08-18T03:53:43.040Z,8.47
2017-08-18T03:56:10.601Z,8.60
2017-08-18T03:58:38.127Z,8.67
2017-08-18T04:01:05.609Z,9.00
2017-08-18T04:03:33.895Z,8.57
2017-08-18T04:06:01.385Z,9.17
2017-08-18T04:08:28.911Z,8.57
2017-08-18T04:10:56.434Z,9.43
2017-08-18T04:13:24.032Z,9.93
2017-08-18T04:15:51.544Z,10.20
2017-08-18T04:18:19.132Z,9.00
2017-08-18T04:20:47.516Z,11.63
2017-08-18T04:23:15.011Z,11.97
2017-08-18T04:25:42.500Z,11.80
2017-08-18T04:28:10.097Z,12.13
2017-08-18T04:30:37.649Z,12.70
2017-08-18T04:33:05.179Z,14.70
2017-08-18T04:35:33.477Z,12.27
2017-08-18T04:38:00.988Z,11.97
2017-08-18T04:40:28.602Z,12.87
2017-08-18T04:42:56.164Z,11.97
2017-08-18T04:45:23.733Z,10.87
2017-08-18T04:47:51.237Z,11.17
2017-08-18T04:50:18.765Z,11.27
2017-08-18T04:52:46.259Z,10.80
2017-08-18T04:55:13.768Z,13.40
2017-08-18T04:57:41.307Z,10.57
2017-08-18T05:00:08.800Z,13.70
2017-08-18T05:02:36.348Z,10.30
2017-08-18T05:05:03.864Z,11.20
2017-08-18T05:07:32.258Z,11.40
2017-08-18T05:09:59.749Z,8.67
2017-08-18T05:12:27.256Z,9.73
2017-08-18T05:14:54.776Z,9.50
2017-08-18T05:17:22.273Z,9.17
2017-08-18T05:19:50.547Z,9.93
2017-08-18T05:22:18.851Z,9.20
2017-08-18T05:24:46.389Z,8.70
2017-08-18T05:27:13.958Z,9.43
2017-08-18T05:29:41.444Z,9.03
2017-08-18T05:32:08.959Z,8.40
2017-08-18T05:34:36.502Z,8.33
2017-08-18T05:37:04.757Z,8.43
2017-08-18T05:39:32.280Z,12.40
2017-08-18T05:41:59.776Z,9.67
2017-08-18T05:44:27.321Z,9.30
2017-08-18T05:46:54.824Z,9.97
2017-08-18T05:49:22.319Z,9.60
2017-08-18T05:51:49.832Z,8.40
2017-08-18T05:54:18.208Z,8.57
2017-08-18T05:56:46.506Z,8.60
2017-08-18T05:59:14.060Z,9.20
2017-08-18T06:01:41.585Z,9.70
2017-08-18T06:04:09.857Z,7.90
2017-08-18T06:06:37.367Z,16.50
2017-08-18T06:09:04.865Z,9.50
2017-08-18T06:11:32.379Z,7.87
2017-08-18T06:13:59.889Z,9.70
2017-08-18T06:16:28.189Z,7.90
2017-08-18T06:18:55.688Z,9.77
2017-08-18T06:21:23.180Z,7.97
2017-08-18T06:23:51.486Z,8.23
2017-08-18T06:26:19.050Z,7.03
2017-08-18T06:28:46.536Z,7.83
2017-08-18T06:31:14.035Z,7.70
2017-08-18T06:33:42.307Z,10.40
2017-08-18T06:36:11.447Z,7.90
2017-08-18T06:38:38.932Z,7.67
2017-08-18T06:41:07.265Z,7.80
2017-08-18T06:43:34.768Z,7.30
2017-08-18T06:46:02.268Z,8.07
2017-08-18T06:48:29.798Z,6.53
2017-08-18T06:50:57.302Z,7.90
2017-08-18T06:53:24.859Z,6.17
2017-08-18T06:55:52.362Z,6.40
2017-08-18T06:58:19.880Z,7.47
2017-08-18T07:00:47.417Z,6.10
2017-08-18T07:03:14.929Z,5.97
2017-08-18T07:05:42.451Z,6.37
2017-08-18T07:08:09.946Z,5.40
2017-08-18T07:10:37.454Z,10.67
2017-08-18T07:13:04.943Z,5.87
2017-08-18T07:15:32.452Z,6.87
2017-08-18T07:18:00.731Z,7.77
2017-08-18T07:20:28.217Z,6.93
2017-08-18T07:22:55.733Z,6.90
2017-08-18T07:25:23.987Z,7.47
2017-08-18T07:27:51.509Z,5.57
2017-08-18T07:30:19.053Z,8.20
2017-08-18T07:32:46.555Z,6.97
2017-08-18T07:35:14.171Z,6.53
2017-08-18T07:37:41.659Z,6.23
2017-08-18T07:40:09.197Z,6.33
2017-08-18T07:42:36.697Z,5.70
2017-08-18T07:45:04.989Z,9.10
2017-08-18T07:47:33.289Z,7.60
2017-08-18T07:50:00.787Z,7.33
2017-08-18T07:52:28.276Z,7.23
2017-08-18T07:54:56.572Z,7.03
2017-08-18T07:57:24.136Z,6.60
2017-08-18T07:59:51.673Z,6.67
2017-08-18T08:02:19.950Z,6.73
2017-08-18T08:04:48.257Z,8.40
2017-08-18T08:07:15.753Z,6.07
2017-08-18T08:09:43.256Z,6.60
2017-08-18T08:12:10.815Z,6.53
2017-08-18T08:14:38.371Z,6.10
2017-08-18T08:17:05.893Z,5.90
2017-08-18T08:19:33.389Z,11.63
2017-08-18T08:22:00.877Z,5.83
2017-08-18T08:24:28.518Z,6.17
2017-08-18T08:26:56.064Z,8.03
2017-08-18T08:29:23.552Z,5.90
2017-08-18T08:31:51.070Z,8.10
2017-08-18T08:34:18.591Z,5.47
2017-08-18T08:36:46.084Z,7.57
2017-08-18T08:39:13.604Z,6.23
2017-08-18T08:41:41.184Z,6.43
2017-08-18T08:44:09.660Z,5.23
2017-08-18T08:46:37.949Z,5.90
2017-08-18T08:49:06.200Z,8.17
2017-08-18T08:51:33.725Z,5.30
2017-08-18T08:54:01.212Z,6.53
2017-08-18T08:56:28.808Z,5.40
2017-08-18T08:58:56.297Z,4.57
2017-08-18T09:01:23.787Z,4.50
2017-08-18T09:03:52.101Z,4.93
2017-08-18T09:06:19.588Z,5.33
2017-08-18T09:08:47.120Z,6.67
2017-08-18T09:11:14.680Z,7.83
2017-08-18T09:13:42.225Z,6.60
2017-08-18T09:16:09.708Z,5.40
2017-08-18T09:18:37.238Z,5.90
2017-08-18T09:21:04.817Z,4.40
2017-08-18T09:23:32.356Z,4.27
2017-08-18T09:25:59.951Z,5.80
2017-08-18T09:28:27.464Z,4.50
2017-08-18T09:30:55.731Z,7.40
2017-08-18T09:33:24.021Z,6.53
2017-08-18T09:35:51.559Z,3.63
2017-08-18T09:38:19.856Z,3.20
2017-08-18T09:40:47.352Z,3.53
2017-08-18T09:43:14.861Z,4.53
2017-08-18T09:45:43.144Z,3.87
2017-08-18T09:48:22.609Z,3.97
2017-08-18T09:51:02.137Z,2.83
2017-08-18T09:53:41.467Z,3.27
2017-08-18T09:56:20.864Z,4.47
2017-08-18T09:58:56.108Z,3.63
2017-08-18T10:01:23.652Z,3.90
2017-08-18T10:03:51.151Z,5.23
2017-08-18T10:06:18.710Z,3.60
2017-08-18T10:08:46.257Z,4.20
2017-08-18T10:11:14.543Z,4.90
2017-08-18T10:13:42.069Z,3.73
2017-08-18T10:16:10.354Z,2.97
2017-08-18T10:18:38.632Z,4.53
2017-08-18T10:21:06.944Z,3.93
2017-08-18T10:23:34.484Z,3.93
2017-08-18T10:26:01.982Z,3.43
2017-08-18T10:28:29.536Z,4.87
2017-08-18T10:30:57.160Z,6.00
2017-08-18T10:33:24.738Z,3.97
2017-08-18T10:35:52.265Z,5.83
2017-08-18T10:38:20.520Z,4.87
2017-08-18T10:40:48.828Z,3.50
2017-08-18T10:43:16.314Z,3.73
2017-08-18T10:45:43.861Z,3.70
2017-08-18T10:48:11.384Z,5.23
2017-08-18T10:50:38.872Z,4.73
2017-08-18T10:53:06.373Z,3.37
2017-08-18T10:55:33.886Z,4.13
2017-08-18T10:58:01.424Z,4.23
2017-08-18T11:00:28.945Z,3.47
2017-08-18T11:02:56.442Z,4.63
2017-08-18T11:05:23.953Z,5.30
2017-08-18T11:07:51.556Z,3.50
2017-08-18T11:10:19.052Z,3.07
2017-08-18T11:12:46.556Z,3.67
2017-08-18T11:15:14.832Z,3.80
2017-08-18T11:17:43.123Z,4.40
2017-08-18T11:20:10.676Z,3.60
2017-08-18T11:22:38.244Z,4.03
2017-08-18T11:25:05.736Z,3.47
2017-08-18T11:27:33.358Z,2.47
2017-08-18T11:30:00.869Z,3.03
2017-08-18T11:32:28.402Z,3.40
2017-08-18T11:34:55.887Z,2.67
2017-08-18T11:37:23.378Z,3.87
2017-08-18T11:39:51.711Z,3.73
2017-08-18T11:42:19.218Z,2.50
2017-08-18T11:44:46.707Z,3.10
2017-08-18T11:47:14.333Z,2.47
2017-08-18T11:49:41.824Z,3.37
2017-08-18T11:52:09.364Z,3.03
2017-08-18T11:54:36.917Z,3.00
2017-08-18T11:57:04.795Z,3.10
2017-08-18T11:59:32.282Z,3.00
2017-08-18T12:01:59.824Z,5.10
2017-08-18T12:04:27.323Z,3.30
2017-08-18T12:06:54.928Z,4.27
2017-08-18T12:09:22.437Z,3.00
2017-08-18T12:11:50.692Z,3.27
2017-08-18T12:14:18.220Z,4.17
2017-08-18T12:16:45.720Z,4.93
2017-08-18T12:19:13.218Z,3.00
2017-08-18T12:21:40.741Z,2.97
2017-08-18T12:24:09.004Z,2.63
2017-08-18T12:26:36.530Z,2.80
2017-08-18T12:29:04.020Z,3.00
2017-08-18T12:31:31.531Z,3.00
2017-08-18T12:33:59.040Z,3.00
2017-08-18T12:36:26.527Z,3.13
2017-08-18T12:38:54.188Z,2.90
2017-08-18T12:41:21.762Z,3.00
2017-08-18T12:43:49.306Z,3.13
2017-08-18T12:46:16.834Z,2.50
2017-08-18T12:48:44.324Z,3.43
2017-08-18T12:51:11.842Z,2.47
2017-08-18T12:53:39.382Z,2.40
2017-08-18T12:56:06.869Z,3.40
2017-08-18T12:58:35.272Z,2.53
2017-08-18T13:01:02.788Z,3.10
2017-08-18T13:03:30.282Z,3.70
2017-08-18T13:05:57.816Z,4.47
2017-08-18T13:08:25.303Z,3.40
2017-08-18T13:10:52.828Z,2.63
2017-08-18T13:13:20.332Z,3.83
2017-08-18T13:15:47.820Z,2.90
2017-08-18T13:18:15.333Z,2.87
2017-08-18T13:20:42.829Z,2.47
2017-08-18T13:23:10.323Z,3.90
2017-08-18T13:25:38.600Z,2.50
2017-08-18T13:28:06.860Z,6.23
2017-08-18T13:30:34.375Z,3.03
2017-08-18T13:33:01.913Z,4.60
2017-08-18T13:35:29.465Z,5.37
2017-08-18T13:37:56.948Z,3.17
2017-08-18T13:40:24.472Z,4.80
2017-08-18T13:42:52.778Z,2.60
2017-08-18T13:45:20.317Z,2.90
2017-08-18T13:47:47.829Z,3.60
2017-08-18T13:50:15.327Z,4.03
2017-08-18T13:52:42.894Z,3.17
2017-08-18T13:55:10.444Z,3.33
2017-08-18T13:57:37.934Z,3.10
2017-08-18T14:00:05.456Z,3.27
2017-08-18T14:02:32.955Z,3.60
2017-08-18T14:05:00.469Z,3.63
2017-08-18T14:07:28.744Z,3.23
2017-08-18T14:09:57.038Z,3.27
2017-08-18T14:12:24.584Z,3.30
2017-08-18T14:14:52.081Z,4.50
2017-08-18T14:17:19.586Z,3.27
2017-08-18T14:19:47.840Z,2.80
2017-08-18T14:22:16.139Z,3.47
2017-08-18T14:24:44.395Z,3.50
2017-08-18T14:27:17.747Z,5.40
2017-08-18T14:29:45.277Z,3.27
2017-08-18T14:32:12.849Z,5.10
2017-08-18T14:34:40.362Z,3.03
2017-08-18T14:37:07.861Z,3.20
2017-08-18T14:39:35.416Z,3.70
2017-08-18T14:42:02.911Z,3.97
2017-08-18T14:44:30.440Z,3.43
2017-08-18T14:46:57.977Z,4.23
2017-08-18T14:49:25.497Z,3.33
2017-08-18T14:51:53.020Z,5.63
2017-08-18T14:54:20.549Z,3.37
2017-08-18T14:56:48.108Z,4.00
2017-08-18T14:59:15.682Z,5.13
2017-08-18T15:01:43.172Z,4.60
2017-08-18T15:04:10.696Z,4.20
2017-08-18T15:06:38.188Z,3.43
2017-08-18T15:09:05.798Z,6.23
2017-08-18T15:11:33.292Z,3.83
2017-08-18T15:14:00.796Z,3.07
2017-08-18T15:16:29.093Z,3.20
2017-08-18T15:18:56.596Z,3.40
2017-08-18T15:21:24.122Z,5.40
2017-08-18T15:23:51.669Z,3.40
2017-08-18T15:26:19.172Z,4.13
2017-08-18T15:28:46.684Z,2.57
2017-08-18T15:31:14.213Z,3.83
2017-08-18T15:33:42.639Z,5.50
2017-08-18T15:36:10.129Z,3.27
2017-08-18T15:38:37.624Z,4.77
2017-08-18T15:41:05.148Z,4.77
2017-08-18T15:43:32.745Z,6.57
2017-08-18T15:46:00.344Z,2.10
2017-08-18T15:48:27.842Z,3.13
2017-08-18T15:50:55.380Z,8.53
2017-08-18T15:53:22.926Z,3.50
2017-08-18T15:55:50.429Z,2.90
2017-08-18T15:58:17.940Z,4.07
2017-08-18T16:00:45.437Z,3.03
2017-08-18T16:03:13.748Z,4.63
2017-08-18T16:05:41.260Z,2.93
2017-08-18T16:08:08.800Z,5.03
2017-08-18T16:10:36.424Z,2.60
2017-08-18T16:13:03.946Z,3.93
2017-08-18T16:15:32.234Z,1.27
2017-08-18T16:17:59.741Z,1.33
2017-08-18T16:20:27.281Z,3.50
2017-08-18T16:22:54.773Z,4.03
2017-08-18T16:25:22.386Z,3.63
2017-08-18T16:27:49.905Z,2.40
2017-08-18T16:30:18.165Z,1.10
2017-08-18T16:32:45.708Z,1.40
2017-08-18T16:35:13.225Z,4.20
2017-08-18T16:37:40.780Z,1.70
2017-08-18T16:40:08.346Z,1.50
2017-08-18T16:42:35.886Z,6.23
2017-08-18T16:45:03.383Z,1.80
2017-08-18T16:47:31.194Z,2.67
2017-08-18T16:49:58.753Z,1.87
2017-08-18T16:52:27.020Z,1.77
2017-08-18T16:54:55.301Z,4.73
2017-08-18T16:57:23.586Z,1.93
2017-08-18T16:59:52.018Z,1.80
2017-08-18T17:02:19.504Z,2.60
2017-08-18T17:04:47.804Z,1.77
2017-08-18T17:07:15.354Z,2.73
2017-08-18T17:09:43.616Z,1.77
2017-08-18T17:12:11.936Z,2.23
2017-08-18T17:14:39.446Z,1.63
2017-08-18T17:17:07.753Z,1.90
2017-08-18T17:19:35.288Z,1.30
2017-08-18T17:22:03.580Z,1.77
2017-08-18T17:24:31.268Z,1.00
2017-08-18T17:26:58.912Z,1.73
2017-08-18T17:29:26.510Z,2.00
2017-08-18T17:31:54.018Z,1.10
2017-08-18T17:34:21.547Z,1.30
2017-08-18T17:36:49.074Z,3.63
2017-08-18T17:39:16.587Z,2.07
2017-08-18T17:41:44.122Z,1.10
2017-08-18T17:44:11.733Z,2.17
2017-08-18T17:46:39.391Z,1.77
2017-08-18T17:49:07.039Z,1.30
2017-08-18T17:51:34.537Z,2.50
2017-08-18T17:54:02.045Z,3.33
2017-08-18T17:56:29.590Z,1.60
2017-08-18T17:58:57.863Z,2.13
2017-08-18T18:01:26.155Z,2.37
2017-08-18T18:03:53.719Z,2.30
2017-08-18T18:06:21.244Z,2.03
2017-08-18T18:08:48.792Z,3.33
2017-08-18T18:11:16.306Z,2.90
2017-08-18T18:13:43.866Z,2.40
2017-08-18T18:16:11.407Z,2.17
2017-08-18T18:18:38.960Z,2.47
2017-08-18T18:21:06.516Z,2.53
2017-08-18T18:23:34.021Z,5.27
2017-08-18T18:26:01.643Z,4.70
2017-08-18T18:28:29.236Z,1.60
2017-08-18T18:30:56.733Z,1.30
2017-08-18T18:33:24.259Z,3.53
2017-08-18T18:35:51.769Z,2.17
2017-08-18T18:38:19.333Z,2.83
2017-08-18T18:40:46.849Z,1.60
2017-08-18T18:43:14.404Z,2.00
2017-08-18T18:45:41.900Z,1.33
2017-08-18T18:48:09.492Z,1.77
2017-08-18T18:50:37.025Z,3.93
2017-08-18T18:53:04.518Z,2.67
2017-08-18T18:55:32.052Z,2.43
2017-08-18T18:57:59.561Z,2.60
2017-08-18T19:00:27.059Z,2.07
2017-08-18T19:02:54.572Z,2.57
2017-08-18T19:05:22.168Z,2.60
2017-08-18T19:07:49.664Z,2.63
2017-08-18T19:10:17.209Z,2.30
2017-08-18T19:12:44.743Z,1.67
2017-08-18T19:15:12.337Z,1.30
2017-08-18T19:17:39.833Z,1.40
2017-08-18T19:20:08.094Z,3.00
2017-08-18T19:22:35.793Z,3.40
2017-08-18T19:25:03.301Z,1.90
2017-08-18T19:27:32.449Z,2.90
2017-08-18T19:30:00.013Z,2.80
2017-08-18T19:32:27.512Z,2.03
2017-08-18T19:34:55.020Z,1.50
2017-08-18T19:37:22.647Z,2.03
2017-08-18T19:39:50.176Z,2.37
2017-08-18T19:42:17.698Z,2.30
2017-08-18T19:44:45.232Z,3.43
2017-08-18T19:47:13.513Z,3.90
2017-08-18T19:49:41.802Z,1.50
2017-08-18T19:52:09.452Z,1.70
2017-08-18T19:54:36.989Z,1.87
2017-08-18T19:57:04.567Z,1.77
2017-08-18T19:59:32.112Z,2.07
2017-08-18T20:02:00.378Z,2.00
2017-08-18T20:04:27.965Z,2.03
2017-08-18T20:06:55.481Z,1.40
2017-08-18T20:09:23.000Z,1.60
2017-08-18T20:11:50.497Z,1.73
2017-08-18T20:14:18.121Z,4.57
2017-08-18T20:16:45.645Z,1.63
2017-08-18T20:19:13.912Z,2.03
2017-08-18T20:21:42.220Z,1.10
2017-08-18T20:24:09.729Z,2.20
2017-08-18T20:26:37.249Z,1.40
2017-08-18T20:29:04.788Z,2.90
2017-08-18T20:31:32.359Z,1.60
2017-08-18T20:33:59.887Z,2.00
2017-08-18T20:36:28.152Z,1.53
2017-08-18T20:38:56.418Z,2.20
2017-08-18T20:41:24.011Z,1.83
2017-08-18T20:43:51.563Z,1.40
2017-08-18T20:46:19.154Z,2.27
2017-08-18T20:48:46.649Z,1.00
2017-08-18T20:51:14.176Z,1.40
2017-08-18T20:53:41.695Z,1.70
2017-08-18T20:56:09.195Z,2.13
2017-08-18T20:58:36.816Z,1.70
2017-08-18T21:01:04.377Z,1.70
2017-08-18T21:03:31.921Z,1.70
2017-08-18T21:06:00.180Z,1.70
2017-08-18T21:08:28.438Z,5.00
2017-08-18T21:10:55.991Z,2.10
2017-08-18T21:13:23.504Z,3.30
2017-08-18T21:15:51.008Z,1.87
2017-08-18T21:18:18.552Z,2.43
2017-08-18T21:20:46.059Z,1.73
2017-08-18T21:23:13.624Z,2.27
2017-08-18T21:25:41.125Z,2.70
2017-08-18T21:28:08.637Z,2.33
2017-08-18T21:30:36.228Z,2.67
2017-08-18T21:33:03.860Z,6.00
2017-08-18T21:35:31.360Z,2.23
2017-08-18T21:37:58.902Z,1.80
2017-08-18T21:40:26.436Z,2.50
2017-08-18T21:42:54.000Z,1.20
2017-08-18T21:45:21.534Z,1.30
2017-08-18T21:47:49.808Z,1.90
2017-08-18T21:50:18.114Z,1.40
2017-08-18T21:52:45.640Z,1.40
2017-08-18T21:55:13.910Z,1.43
2017-08-18T21:57:42.205Z,1.40
2017-08-18T22:00:09.704Z,1.33
2017-08-18T22:02:37.245Z,2.10
2017-08-18T22:05:04.780Z,2.50
2017-08-18T22:07:32.348Z,1.20
2017-08-18T22:09:59.925Z,3.93
2017-08-18T22:12:27.438Z,1.20
2017-08-18T22:14:55.766Z,1.23
2017-08-18T22:17:23.253Z,1.20
2017-08-18T22:19:50.764Z,1.40
2017-08-18T22:22:18.301Z,2.50
2017-08-18T22:24:45.806Z,2.13
2017-08-18T22:27:13.366Z,2.20
2017-08-18T22:29:41.213Z,4.43
2017-08-18T22:32:08.772Z,1.80
2017-08-18T22:34:36.437Z,2.87
2017-08-18T22:37:03.983Z,2.27
2017-08-18T22:39:31.525Z,3.53
2017-08-18T22:41:59.021Z,2.43
2017-08-18T22:44:26.524Z,2.80
2017-08-18T22:46:54.045Z,2.33
2017-08-18T22:49:21.532Z,2.47
2017-08-18T22:51:49.833Z,1.63
2017-08-18T22:54:17.357Z,2.40
2017-08-18T22:56:44.849Z,3.00
2017-08-18T22:59:12.392Z,10.30
2017-08-18T23:01:39.895Z,2.40
2017-08-18T23:04:07.582Z,4.03
2017-08-18T23:06:35.067Z,2.30
2017-08-18T23:09:02.565Z,1.80
2017-08-18T23:11:30.072Z,4.13
2017-08-18T23:13:57.566Z,2.33
2017-08-18T23:16:25.076Z,2.40
2017-08-18T23:18:53.373Z,1.80
2017-08-18T23:21:20.871Z,2.40
2017-08-18T23:23:48.397Z,3.30
2017-08-18T23:26:15.905Z,1.70
2017-08-18T23:28:43.425Z,3.70
2017-08-18T23:31:10.964Z,4.00
2017-08-18T23:33:38.540Z,5.17
2017-08-18T23:36:06.056Z,2.33
2017-08-18T23:38:33.644Z,3.20
2017-08-18T23:41:01.241Z,1.77
2017-08-18T23:43:28.737Z,1.70
2017-08-18T23:45:57.008Z,3.60
2017-08-18T23:48:25.290Z,1.57
2017-08-18T23:50:53.604Z,3.07
2017-08-18T23:53:21.120Z,1.20
2017-08-18T23:55:49.380Z,1.50
2017-08-18T23:58:16.899Z,1.40
